Time;durP1;ratioP1;P1;durP2;ratioP2;P2;SDS_P1;SDS_P2;PMS_P1;PMS_P2;Temp;Humidity;BMP_temperature;BMP_pressure;BME280_temperature;BME280_humidity;BME280_pressure;Samples;Min_cycle;Max_cycle;Signal;HPM_P1;HPM_P2
2021/08/06 00:01:33;;;;;;;6.70;4.90;;;22.90;73.60;;;;;;5053625;28;20094;-85
2021/08/06 00:03:59;;;;;;;6.95;5.72;;;23.00;73.80;;;;;;5035943;28;20051;-84
2021/08/06 00:06:27;;;;;;;7.93;5.28;;;22.90;74.00;;;;;;5053606;28;20067;-85
2021/08/06 00:08:56;;;;;;;6.93;5.63;;;22.90;74.70;;;;;;5035917;28;20044;-85
2021/08/06 00:11:31;;;;;;;6.20;5.07;;;22.90;74.30;;;;;;5035562;28;20025;-85
2021/08/06 00:13:58;;;;;;;5.97;4.78;;;22.80;74.30;;;;;;5053675;28;20057;-85
2021/08/06 00:16:24;;;;;;;6.57;5.47;;;22.80;74.60;;;;;;5035717;28;20383;-85
2021/08/06 00:18:51;;;;;;;6.78;5.45;;;22.70;74.80;;;;;;5036033;28;20029;-85
2021/08/06 00:21:18;;;;;;;8.63;5.80;;;22.70;74.90;;;;;;5035664;28;20032;-84
2021/08/06 00:23:45;;;;;;;8.18;5.65;;;22.70;75.10;;;;;;5035589;28;20056;-85
2021/08/06 00:26:14;;;;;;;10.13;5.80;;;22.70;75.10;;;;;;5053266;28;20519;-85
2021/08/06 00:28:41;;;;;;;7.25;5.32;;;22.70;75.30;;;;;;5053196;28;20578;-85
2021/08/06 00:31:06;;;;;;;7.80;5.22;;;22.60;75.30;;;;;;5036154;28;20047;-84
2021/08/06 00:33:32;;;;;;;7.43;6.10;;;22.60;75.40;;;;;;5035591;28;20380;-85
2021/08/06 00:35:58;;;;;;;8.13;6.53;;;22.60;75.70;;;;;;5053259;28;20036;-84
2021/08/06 00:38:23;;;;;;;9.02;6.53;;;22.60;76.00;;;;;;5053369;28;20104;-84
2021/08/06 00:40:50;;;;;;;9.80;6.97;;;22.60;76.20;;;;;;5035564;28;20525;-84
2021/08/06 00:43:15;;;;;;;10.35;7.72;;;22.60;76.50;;;;;;5057583;28;20025;-85
2021/08/06 00:45:41;;;;;;;10.07;7.90;;;22.60;76.80;;;;;;5039439;28;20028;-85
2021/08/06 00:48:08;;;;;;;10.02;8.13;;;22.60;77.00;;;;;;5039629;28;20029;-85
2021/08/06 00:50:33;;;;;;;11.23;8.02;;;22.50;77.20;;;;;;5057157;28;20059;-84
2021/08/06 00:53:00;;;;;;;10.63;7.65;;;22.60;77.50;;;;;;5039143;28;20053;-84
2021/08/06 00:55:26;;;;;;;10.20;7.53;;;22.50;77.30;;;;;;5057550;28;20021;-85
2021/08/06 00:57:52;;;;;;;9.25;7.60;;;22.50;77.60;;;;;;5038864;28;20037;-84
2021/08/06 01:00:18;;;;;;;13.65;8.88;;;22.50;77.80;;;;;;5057196;28;20031;-84
2021/08/06 01:03:10;;;;;;;8.82;7.13;;;22.40;77.80;;;;;;5056998;28;20029;-84
2021/08/06 01:05:43;;;;;;;10.20;8.05;;;22.40;77.90;;;;;;5039019;28;20032;-84
2021/08/06 01:08:15;;;;;;;10.75;7.68;;;22.40;78.80;;;;;;5057483;28;20025;-84
2021/08/06 01:10:45;;;;;;;9.88;7.53;;;22.30;78.30;;;;;;5056871;28;20056;-84
2021/08/06 01:13:13;;;;;;;9.98;7.55;;;22.30;78.30;;;;;;5039246;28;20045;-85
2021/08/06 01:15:42;;;;;;;11.50;8.30;;;22.20;78.30;;;;;;5038856;28;20037;-85
2021/08/06 01:18:12;;;;;;;9.25;7.80;;;22.20;79.00;;;;;;5039303;28;20040;-85
2021/08/06 01:20:41;;;;;;;11.25;8.35;;;22.20;79.00;;;;;;5056761;28;20060;-82
2021/08/06 01:23:37;;;;;;;9.30;7.28;;;22.20;79.20;;;;;;5039021;28;20029;-83
2021/08/06 01:26:18;;;;;;;12.27;7.82;;;22.10;79.50;;;;;;5039492;28;20397;-83
2021/08/06 01:28:46;;;;;;;10.43;7.88;;;22.10;79.90;;;;;;5056349;28;20021;-85
2021/08/06 01:31:13;;;;;;;9.65;7.65;;;22.10;79.40;;;;;;5056081;28;20460;-85
2021/08/06 01:33:39;;;;;;;9.05;6.93;;;22.10;79.60;;;;;;5056396;28;20101;-84
2021/08/06 01:36:05;;;;;;;10.93;6.82;;;22.00;79.50;;;;;;5056443;28;20028;-84
2021/08/06 01:38:31;;;;;;;8.85;6.63;;;22.00;79.50;;;;;;5038362;28;20036;-85
2021/08/06 01:41:26;;;;;;;7.50;6.28;;;22.00;79.70;;;;;;5038017;28;20048;-85
2021/08/06 01:44:00;;;;;;;8.98;7.07;;;22.00;80.70;;;;;;5056370;28;20048;-84
2021/08/06 01:46:40;;;;;;;8.05;6.20;;;22.00;79.90;;;;;;5038434;28;20399;-84
2021/08/06 01:49:19;;;;;;;8.68;6.50;;;22.00;80.00;;;;;;5038839;28;20434;-85
2021/08/06 01:52:08;;;;;;;6.60;5.82;;;22.00;80.70;;;;;;5038639;28;20475;-84
2021/08/06 01:54:36;;;;;;;7.10;5.80;;;22.00;80.90;;;;;;5037070;28;20033;-85
2021/08/06 01:57:03;;;;;;;8.82;6.00;;;22.00;80.40;;;;;;5038053;28;20033;-85
2021/08/06 01:59:29;;;;;;;8.43;6.47;;;22.10;80.50;;;;;;5055893;28;20086;-85
2021/08/06 02:01:56;;;;;;;9.00;6.60;;;22.10;80.60;;;;;;5055931;28;20025;-85
2021/08/06 02:04:24;;;;;;;8.27;6.00;;;22.10;81.10;;;;;;5065799;28;20021;-85
2021/08/06 02:06:50;;;;;;;8.50;6.53;;;22.10;80.40;;;;;;5054322;28;20044;-86
2021/08/06 02:09:17;;;;;;;10.88;6.60;;;22.10;80.50;;;;;;5042682;28;20115;-84
2021/08/06 02:11:43;;;;;;;6.80;5.80;;;22.10;80.90;;;;;;5037564;28;20399;-85
2021/08/06 02:14:15;;;;;;;8.20;5.70;;;22.10;80.70;;;;;;5055924;28;20108;-85
2021/08/06 02:16:44;;;;;;;8.43;5.90;;;22.00;80.60;;;;;;5037650;28;20475;-84
2021/08/06 02:19:12;;;;;;;10.03;7.43;;;22.00;81.10;;;;;;5037762;28;20115;-85
2021/08/06 02:21:40;;;;;;;7.47;6.07;;;21.90;81.40;;;;;;5055754;28;20724;-85
2021/08/06 02:24:09;;;;;;;8.60;6.03;;;21.90;81.60;;;;;;5038134;28;20075;-86
2021/08/06 02:26:38;;;;;;;9.03;6.47;;;21.90;81.60;;;;;;5055545;28;20039;-86
2021/08/06 02:29:07;;;;;;;7.70;6.22;;;21.80;81.80;;;;;;5037445;28;20075;-85
2021/08/06 02:31:33;;;;;;;8.20;6.88;;;21.90;81.80;;;;;;5055352;28;20051;-84
2021/08/06 02:33:59;;;;;;;8.25;6.28;;;21.80;82.30;;;;;;5037392;28;20052;-84
2021/08/06 02:36:25;;;;;;;8.38;6.60;;;21.80;82.10;;;;;;5037085;28;20072;-85
2021/08/06 02:38:55;;;;;;;8.27;6.78;;;21.80;82.50;;;;;;5037302;28;20063;-85
2021/08/06 02:41:21;;;;;;;7.72;6.45;;;21.70;82.70;;;;;;5038162;28;20028;-85
2021/08/06 02:43:47;;;;;;;10.52;6.15;;;21.70;82.70;;;;;;5037186;28;20024;-85
2021/08/06 02:46:15;;;;;;;7.18;6.43;;;21.70;82.70;;;;;;5038907;28;20102;-85
2021/08/06 02:48:41;;;;;;;9.05;6.63;;;21.70;83.30;;;;;;5037133;28;20363;-86
2021/08/06 02:51:07;;;;;;;8.77;6.90;;;21.70;83.30;;;;;;5037244;28;20028;-86
2021/08/06 02:53:33;;;;;;;9.43;7.28;;;21.70;83.40;;;;;;5054588;28;20096;-85
2021/08/06 02:55:59;;;;;;;11.23;8.52;;;21.70;83.90;;;;;;5036896;28;20025;-85
2021/08/06 02:58:24;;;;;;;11.57;7.95;;;21.70;84.50;;;;;;5054609;28;20527;-84
2021/08/06 03:00:50;;;;;;;9.30;7.65;;;21.70;84.60;;;;;;5036598;28;20057;-84
2021/08/06 03:03:16;;;;;;;10.05;8.15;;;21.70;85.00;;;;;;5054562;28;20079;-84
2021/08/06 03:05:42;;;;;;;13.40;9.90;;;21.70;85.50;;;;;;5054396;28;20029;-83
2021/08/06 03:08:07;;;;;;;11.10;8.63;;;21.80;86.20;;;;;;5036826;28;20482;-84
2021/08/06 03:10:34;;;;;;;9.65;7.93;;;21.80;86.30;;;;;;5036646;28;20079;-84
2021/08/06 03:13:00;;;;;;;10.85;8.35;;;21.80;86.30;;;;;;5036426;28;20049;-85
2021/08/06 03:15:26;;;;;;;12.20;9.75;;;21.90;86.60;;;;;;5054407;28;20021;-83
2021/08/06 03:17:52;;;;;;;10.50;8.35;;;21.90;86.90;;;;;;5053752;28;20120;-84
2021/08/06 03:20:22;;;;;;;11.63;9.60;;;21.90;87.10;;;;;;5036159;28;20036;-83
2021/08/06 03:22:49;;;;;;;11.52;9.55;;;22.00;87.20;;;;;;5036037;28;20079;-85
2021/08/06 03:25:15;;;;;;;16.10;13.05;;;22.00;87.50;;;;;;5036029;28;20036;-87
2021/08/06 03:27:41;;;;;;;13.30;10.30;;;22.00;87.50;;;;;;5053821;28;20029;-83
2021/08/06 03:30:10;;;;;;;13.07;10.55;;;22.10;87.70;;;;;;5036265;28;20027;-82
2021/08/06 03:32:37;;;;;;;10.93;9.82;;;22.10;87.80;;;;;;5036150;28;20029;-83
2021/08/06 03:35:03;;;;;;;11.63;9.80;;;22.10;87.70;;;;;;5053892;28;20036;-83
2021/08/06 03:37:29;;;;;;;13.48;10.60;;;22.10;87.70;;;;;;5053846;28;20123;-85
2021/08/06 03:39:55;;;;;;;15.55;10.18;;;22.20;88.10;;;;;;5053789;28;20033;-84
2021/08/06 03:42:21;;;;;;;14.05;10.07;;;22.10;88.30;;;;;;5054147;28;20032;-85
2021/08/06 03:44:46;;;;;;;11.98;10.05;;;22.10;88.60;;;;;;5036005;28;20116;-83
2021/08/06 03:47:12;;;;;;;12.48;10.35;;;22.10;89.30;;;;;;5035644;28;20391;-82
2021/08/06 03:49:38;;;;;;;12.95;10.63;;;22.10;89.60;;;;;;5035846;28;20079;-82
2021/08/06 03:52:04;;;;;;;12.60;9.60;;;22.10;89.60;;;;;;5035901;28;20032;-83
2021/08/06 03:54:29;;;;;;;12.23;10.55;;;22.00;90.00;;;;;;5053538;28;20025;-82
2021/08/06 03:56:55;;;;;;;13.30;10.05;;;22.00;90.00;;;;;;5035501;28;20471;-85
2021/08/06 03:59:21;;;;;;;11.55;9.20;;;22.00;90.00;;;;;;5035583;28;20033;-87
2021/08/06 04:01:46;;;;;;;12.93;9.30;;;22.00;90.00;;;;;;5036000;28;20074;-87
2021/08/06 04:04:12;;;;;;;10.25;8.30;;;22.00;89.90;;;;;;5055114;28;20096;-88
2021/08/06 04:06:39;;;;;;;10.32;8.02;;;22.00;89.50;;;;;;5036556;28;20120;-85
2021/08/06 04:09:05;;;;;;;9.57;7.47;;;22.00;89.50;;;;;;5034617;28;20021;-85
2021/08/06 04:11:31;;;;;;;9.75;7.95;;;22.00;89.20;;;;;;5034016;28;20072;-83
2021/08/06 04:13:57;;;;;;;10.82;6.90;;;22.00;89.10;;;;;;5051930;28;20032;-85
2021/08/06 04:16:23;;;;;;;9.02;7.38;;;22.10;89.00;;;;;;5034371;28;20021;-84
2021/08/06 04:18:48;;;;;;;10.40;7.28;;;22.10;88.80;;;;;;5037877;28;20472;-85
2021/08/06 04:21:15;;;;;;;9.90;7.55;;;22.20;88.90;;;;;;5055902;28;20104;-85
2021/08/06 04:23:41;;;;;;;10.77;7.95;;;22.20;89.10;;;;;;5039429;28;20510;-84
2021/08/06 04:26:06;;;;;;;12.07;7.90;;;22.30;89.00;;;;;;5039763;28;20028;-87
2021/08/06 04:28:32;;;;;;;12.85;9.00;;;22.30;89.00;;;;;;5037515;28;20036;-84
2021/08/06 04:31:00;;;;;;;12.13;9.02;;;22.40;89.00;;;;;;5055444;28;20037;-84
2021/08/06 04:33:30;;;;;;;15.75;9.90;;;22.40;88.90;;;;;;5037155;28;20059;-83
2021/08/06 04:35:56;;;;;;;13.93;9.88;;;22.50;89.00;;;;;;5055144;28;20048;-85
2021/08/06 04:38:22;;;;;;;14.07;9.73;;;22.50;89.00;;;;;;5037459;28;20041;-84
2021/08/06 04:40:48;;;;;;;17.40;11.00;;;22.60;89.00;;;;;;5037441;28;20508;-84
2021/08/06 04:43:14;;;;;;;16.05;11.30;;;22.70;89.10;;;;;;5056468;28;20083;-83
2021/08/06 04:45:40;;;;;;;12.02;9.82;;;22.70;89.30;;;;;;5057153;28;20469;-83
2021/08/06 04:48:06;;;;;;;13.18;9.00;;;22.70;89.00;;;;;;5039467;28;20387;-83
2021/08/06 04:50:32;;;;;;;10.95;8.95;;;22.80;89.00;;;;;;5039066;28;20028;-84
2021/08/06 04:52:58;;;;;;;10.98;8.63;;;22.80;89.00;;;;;;5039090;28;20525;-83
2021/08/06 04:55:25;;;;;;;9.30;8.15;;;22.80;89.00;;;;;;5038928;28;20160;-83
2021/08/06 04:57:51;;;;;;;9.98;8.15;;;22.80;89.10;;;;;;5039252;28;20033;-83
2021/08/06 05:00:18;;;;;;;10.52;8.88;;;22.80;88.90;;;;;;5056889;28;20029;-83
2021/08/06 05:02:44;;;;;;;9.77;8.27;;;22.80;89.40;;;;;;5038861;28;20021;-83
2021/08/06 05:05:11;;;;;;;12.40;8.63;;;22.90;89.30;;;;;;5056706;28;20021;-83
2021/08/06 05:07:37;;;;;;;11.30;9.18;;;23.00;89.40;;;;;;5038864;28;20029;-84
2021/08/06 05:10:03;;;;;;;10.80;8.32;;;23.00;89.40;;;;;;5038678;28;20023;-83
2021/08/06 05:12:29;;;;;;;12.18;8.70;;;23.10;89.20;;;;;;5056681;28;20099;-83
2021/08/06 05:14:54;;;;;;;10.73;8.52;;;23.20;89.00;;;;;;5056739;28;20464;-83
2021/08/06 05:17:20;;;;;;;10.40;8.57;;;23.20;88.80;;;;;;5056644;28;20044;-84
2021/08/06 05:19:46;;;;;;;11.52;8.93;;;23.30;88.70;;;;;;5038592;28;20108;-83
2021/08/06 05:22:12;;;;;;;11.52;8.82;;;23.50;88.50;;;;;;5045373;28;20037;-83
2021/08/06 05:24:38;;;;;;;11.98;8.95;;;23.50;87.80;;;;;;5062782;28;20036;-83
2021/08/06 05:27:04;;;;;;;11.30;8.70;;;23.70;87.20;;;;;;5039295;28;20468;-83
2021/08/06 05:29:31;;;;;;;10.25;8.57;;;23.80;86.80;;;;;;5056449;28;20057;-82
2021/08/06 05:31:56;;;;;;;12.27;9.95;;;23.90;86.00;;;;;;5038419;28;20056;-82
2021/08/06 05:34:22;;;;;;;10.35;8.60;;;24.00;85.60;;;;;;5056590;28;20064;-83
2021/08/06 05:36:48;;;;;;;12.50;8.65;;;24.10;85.10;;;;;;5056323;28;20407;-82
2021/08/06 05:39:13;;;;;;;11.90;9.13;;;24.30;84.30;;;;;;5055962;28;20379;-82
2021/08/06 05:41:39;;;;;;;9.95;7.78;;;24.30;83.70;;;;;;5038214;28;20036;-81
2021/08/06 05:44:05;;;;;;;13.98;9.93;;;24.40;83.30;;;;;;5038135;28;20032;-81
2021/08/06 05:46:31;;;;;;;11.23;8.40;;;24.50;82.60;;;;;;5055892;28;20360;-83
2021/08/06 05:48:56;;;;;;;10.05;7.72;;;24.60;82.30;;;;;;5038069;28;20028;-82
2021/08/06 05:51:22;;;;;;;9.40;7.60;;;24.70;82.10;;;;;;5037944;28;20029;-82
2021/08/06 05:53:51;;;;;;;12.75;9.90;;;24.80;81.80;;;;;;5055994;28;20048;-83
2021/08/06 05:56:16;;;;;;;11.68;8.75;;;24.90;80.50;;;;;;5055928;28;20071;-83
2021/08/06 05:58:42;;;;;;;10.38;7.65;;;24.90;80.20;;;;;;5037850;28;20028;-84
2021/08/06 06:01:08;;;;;;;8.60;7.20;;;25.00;80.00;;;;;;5055534;28;20104;-85
2021/08/06 06:03:33;;;;;;;9.00;7.30;;;25.00;79.80;;;;;;5055724;28;20025;-84
2021/08/06 06:05:59;;;;;;;8.75;7.18;;;25.20;79.80;;;;;;5055608;28;20051;-84
2021/08/06 06:08:26;;;;;;;8.82;7.30;;;25.20;79.20;;;;;;5037684;28;20029;-84
2021/08/06 06:10:52;;;;;;;11.25;7.82;;;25.30;79.30;;;;;;5037569;28;20467;-83
2021/08/06 06:13:21;;;;;;;10.23;7.82;;;25.30;78.40;;;;;;5037435;28;20041;-83
2021/08/06 06:15:47;;;;;;;11.95;8.25;;;25.30;77.60;;;;;;5037214;28;20045;-83
2021/08/06 06:18:12;;;;;;;16.45;9.63;;;25.40;77.30;;;;;;5037348;28;20068;-84
2021/08/06 06:20:38;;;;;;;15.52;9.20;;;25.30;77.20;;;;;;5037708;28;20528;-83
2021/08/06 06:23:04;;;;;;;13.02;8.80;;;25.40;77.30;;;;;;5037530;28;20036;-83
2021/08/06 06:25:30;;;;;;;10.20;8.00;;;25.40;77.10;;;;;;5037509;28;20029;-84
2021/08/06 06:27:58;;;;;;;10.25;8.48;;;25.40;76.90;;;;;;5055482;28;20021;-84
2021/08/06 06:30:26;;;;;;;8.85;7.70;;;25.40;77.00;;;;;;5055299;28;20159;-84
2021/08/06 06:32:53;;;;;;;10.45;7.45;;;25.40;77.10;;;;;;5037688;28;20036;-83
2021/08/06 06:35:19;;;;;;;9.50;8.43;;;25.40;77.00;;;;;;5037320;28;20029;-84
2021/08/06 06:37:45;;;;;;;12.05;8.50;;;25.40;76.70;;;;;;5037911;28;20037;-82
2021/08/06 06:40:11;;;;;;;11.40;8.30;;;25.30;76.80;;;;;;5056258;28;20021;-82
2021/08/06 06:42:37;;;;;;;9.77;7.65;;;25.30;76.50;;;;;;5037137;28;20036;-82
2021/08/06 06:45:07;;;;;;;10.02;7.50;;;25.20;76.60;;;;;;5054952;28;20379;-82
2021/08/06 06:47:41;;;;;;;8.80;7.22;;;25.20;76.90;;;;;;5055476;28;20063;-83
2021/08/06 06:50:09;;;;;;;11.00;8.75;;;25.30;76.90;;;;;;5037726;28;20451;-83
2021/08/06 06:52:36;;;;;;;12.30;8.45;;;25.30;77.10;;;;;;5055112;28;20025;-83
2021/08/06 06:55:03;;;;;;;16.77;11.10;;;25.20;77.60;;;;;;5036975;28;20029;-83
2021/08/06 06:57:29;;;;;;;12.88;11.48;;;25.30;78.30;;;;;;5054705;28;20032;-83
2021/08/06 06:59:55;;;;;;;15.38;11.27;;;25.30;78.40;;;;;;5036982;28;20078;-83
2021/08/06 07:02:22;;;;;;;13.40;11.50;;;25.30;78.50;;;;;;5036377;28;20029;-84
2021/08/06 07:04:48;;;;;;;14.55;9.85;;;25.20;78.50;;;;;;5054891;28;20029;-84
2021/08/06 07:07:13;;;;;;;15.45;9.07;;;25.00;78.10;;;;;;5036826;28;20444;-84
2021/08/06 07:09:40;;;;;;;9.90;8.20;;;24.80;78.10;;;;;;5054509;28;20025;-84
2021/08/06 07:12:06;;;;;;;9.52;8.20;;;24.60;78.60;;;;;;5054144;28;20098;-84
2021/08/06 07:14:32;;;;;;;11.73;7.43;;;24.50;79.00;;;;;;5036441;28;20025;-84
2021/08/06 07:16:59;;;;;;;8.82;7.40;;;24.50;79.30;;;;;;5054104;28;20029;-83
2021/08/06 07:19:24;;;;;;;8.82;7.13;;;24.50;78.90;;;;;;5036459;28;20171;-84
2021/08/06 07:21:51;;;;;;;10.07;7.72;;;24.50;78.70;;;;;;5054530;28;20072;-83
2021/08/06 07:24:17;;;;;;;10.40;7.68;;;24.60;78.20;;;;;;5036325;28;20025;-84
2021/08/06 07:26:42;;;;;;;8.35;6.72;;;24.50;77.80;;;;;;5036236;28;20056;-84
2021/08/06 07:29:08;;;;;;;10.60;6.57;;;24.30;78.10;;;;;;5036226;28;20106;-84
2021/08/06 07:31:34;;;;;;;7.88;6.55;;;24.20;78.50;;;;;;5054013;28;20474;-83
2021/08/06 07:34:00;;;;;;;9.15;6.28;;;24.10;79.20;;;;;;5036193;28;20037;-84
2021/08/06 07:36:25;;;;;;;9.88;6.72;;;24.00;79.80;;;;;;5053947;28;20522;-83
2021/08/06 07:38:51;;;;;;;8.23;6.75;;;23.90;80.50;;;;;;5054180;28;20426;-83
2021/08/06 07:41:17;;;;;;;10.10;6.60;;;23.70;81.60;;;;;;5036101;28;20025;-83
2021/08/06 07:43:43;;;;;;;11.88;6.50;;;23.50;82.00;;;;;;5036017;28;20025;-83
2021/08/06 07:46:09;;;;;;;9.85;5.70;;;23.30;82.50;;;;;;5054043;28;20029;-84
2021/08/06 07:48:35;;;;;;;9.63;6.40;;;23.20;82.90;;;;;;5035939;28;20429;-82
2021/08/06 07:51:01;;;;;;;9.07;7.18;;;23.20;83.60;;;;;;5035066;28;20025;-83
2021/08/06 07:53:29;;;;;;;10.40;7.38;;;23.20;83.60;;;;;;5053862;28;20029;-83
2021/08/06 07:55:55;;;;;;;9.93;7.15;;;23.30;84.10;;;;;;5035813;28;20029;-83
2021/08/06 07:58:21;;;;;;;14.18;8.63;;;23.40;84.20;;;;;;5053628;28;20044;-83
2021/08/06 08:00:47;;;;;;;36.58;17.67;;;23.50;83.90;;;;;;5053376;28;20463;-83
2021/08/06 08:03:12;;;;;;;66.38;28.48;;;23.70;83.40;;;;;;5035574;28;20036;-82
2021/08/06 08:05:38;;;;;;;71.10;29.65;;;23.70;81.80;;;;;;5035803;28;20029;-83
2021/08/06 08:08:04;;;;;;;58.25;28.23;;;23.80;81.00;;;;;;5035623;28;20032;-82
2021/08/06 08:10:32;;;;;;;40.00;19.33;;;23.80;80.70;;;;;;5053419;28;20025;-82
2021/08/06 08:12:58;;;;;;;29.20;13.93;;;23.90;80.70;;;;;;5053311;28;20221;-83
2021/08/06 08:15:24;;;;;;;17.77;8.43;;;23.90;80.40;;;;;;5035565;28;20060;-83
2021/08/06 08:17:53;;;;;;;14.73;7.00;;;24.00;79.90;;;;;;5053294;28;20068;-83
2021/08/06 08:20:18;;;;;;;10.32;5.47;;;24.00;79.20;;;;;;5053580;28;20116;-82
2021/08/06 08:22:44;;;;;;;8.00;6.10;;;24.10;79.70;;;;;;5053516;28;20068;-84
2021/08/06 08:25:10;;;;;;;8.10;5.82;;;24.20;79.30;;;;;;5053610;28;20025;-84
2021/08/06 08:27:36;;;;;;;10.82;6.13;;;24.30;79.30;;;;;;5053276;28;20025;-83
2021/08/06 08:30:04;;;;;;;10.60;6.00;;;24.40;78.70;;;;;;5053419;28;20047;-83
2021/08/06 08:32:30;;;;;;;10.43;5.80;;;24.60;77.80;;;;;;5035678;28;20429;-84
2021/08/06 08:34:55;;;;;;;8.77;5.53;;;24.80;77.00;;;;;;5035508;28;20120;-85
2021/08/06 08:37:21;;;;;;;5.70;4.60;;;25.00;75.80;;;;;;5053230;28;20403;-83
2021/08/06 08:39:47;;;;;;;8.30;4.65;;;25.30;74.30;;;;;;5054168;28;20056;-83
2021/08/06 08:42:15;;;;;;;8.63;4.80;;;25.60;73.70;;;;;;5057525;28;20036;-84
2021/08/06 08:44:40;;;;;;;7.65;4.30;;;25.90;72.80;;;;;;5054498;28;20032;-83
2021/08/06 08:47:07;;;;;;;11.73;4.63;;;26.30;72.70;;;;;;5035159;28;20029;-83
2021/08/06 08:49:35;;;;;;;5.10;3.92;;;26.90;72.60;;;;;;5053028;28;20371;-83
2021/08/06 08:52:04;;;;;;;7.30;4.22;;;27.60;70.00;;;;;;5053170;28;20068;-84
2021/08/06 08:54:30;;;;;;;8.18;3.53;;;28.00;67.90;;;;;;5035823;28;20133;-84
2021/08/06 08:56:56;;;;;;;7.18;3.80;;;28.50;66.00;;;;;;5035481;28;20116;-85
2021/08/06 08:59:22;;;;;;;5.90;3.80;;;28.90;63.60;;;;;;5053111;28;20029;-84
2021/08/06 09:01:47;;;;;;;6.38;3.78;;;29.30;60.10;;;;;;5035076;28;20486;-83
2021/08/06 09:04:24;;;;;;;8.50;3.53;;;29.40;58.70;;;;;;5038759;28;20025;-84
2021/08/06 09:06:51;;;;;;;6.03;2.88;;;29.30;58.10;;;;;;5056754;28;20100;-83
2021/08/06 09:09:22;;;;;;;5.88;3.13;;;29.40;58.10;;;;;;5056720;28;20020;-83
2021/08/06 09:12:02;;;;;;;6.13;3.10;;;29.60;56.70;;;;;;5038309;28;20029;-84
2021/08/06 09:14:30;;;;;;;9.25;3.50;;;29.70;55.50;;;;;;5038734;28;20660;-83
2021/08/06 09:16:56;;;;;;;6.85;3.20;;;29.70;54.60;;;;;;5056706;28;20033;-83
2021/08/06 09:19:22;;;;;;;5.68;2.80;;;29.60;54.00;;;;;;5056639;28;20120;-83
2021/08/06 09:21:48;;;;;;;4.80;3.10;;;29.40;54.90;;;;;;5056385;28;20025;-83
2021/08/06 09:24:14;;;;;;;5.40;2.70;;;29.30;54.50;;;;;;5056371;28;20025;-83
2021/08/06 09:26:42;;;;;;;4.45;2.97;;;29.30;54.40;;;;;;5056304;28;20021;-83
2021/08/06 09:29:21;;;;;;;7.05;3.05;;;29.30;54.40;;;;;;5038565;28;20025;-83
2021/08/06 09:32:00;;;;;;;6.45;3.38;;;29.20;54.20;;;;;;5056492;28;20021;-82
2021/08/06 09:34:36;;;;;;;5.00;3.00;;;29.10;53.60;;;;;;5038366;28;20065;-83
2021/08/06 09:37:07;;;;;;;7.05;2.90;;;29.10;54.30;;;;;;5038418;28;20040;-83
2021/08/06 09:39:39;;;;;;;6.25;3.00;;;29.10;53.80;;;;;;5038336;28;20024;-83
2021/08/06 09:42:17;;;;;;;6.25;3.03;;;29.20;53.30;;;;;;5056226;28;20294;-83
2021/08/06 09:44:45;;;;;;;5.32;2.80;;;29.30;53.60;;;;;;5038708;28;20024;-83
2021/08/06 09:47:20;;;;;;;4.88;2.90;;;29.40;52.70;;;;;;5055898;28;20526;-84
2021/08/06 09:49:48;;;;;;;5.32;2.47;;;29.60;52.50;;;;;;5056012;28;20055;-84
2021/08/06 09:52:14;;;;;;;4.00;2.28;;;29.70;52.50;;;;;;5055796;28;20018;-84
2021/08/06 09:54:51;;;;;;;4.85;2.25;;;29.80;52.90;;;;;;5037735;28;20033;-83
2021/08/06 09:57:17;;;;;;;5.85;3.20;;;29.90;52.70;;;;;;5037872;28;20128;-83
2021/08/06 09:59:43;;;;;;;6.70;3.60;;;30.00;53.10;;;;;;5037715;28;20021;-83
2021/08/06 10:02:27;;;;;;;14.25;5.90;;;30.00;53.30;;;;;;5055538;28;20029;-83
2021/08/06 10:05:02;;;;;;;10.02;4.80;;;30.10;50.80;;;;;;5037807;28;20029;-84
2021/08/06 10:07:33;;;;;;;7.85;3.85;;;30.10;50.90;;;;;;5037605;28;20043;-83
2021/08/06 10:10:00;;;;;;;7.85;3.70;;;30.00;51.50;;;;;;5055213;28;20083;-83
2021/08/06 10:12:26;;;;;;;5.68;3.22;;;30.00;51.70;;;;;;5033933;28;20053;-84
2021/08/06 10:14:52;;;;;;;5.65;3.50;;;30.00;51.40;;;;;;5034530;28;20423;-84
2021/08/06 10:17:18;;;;;;;8.93;4.38;;;29.90;51.30;;;;;;5035303;28;20398;-84
2021/08/06 10:19:44;;;;;;;8.10;4.05;;;29.90;51.70;;;;;;5034003;28;20034;-83
2021/08/06 10:22:10;;;;;;;8.75;3.92;;;29.90;51.60;;;;;;5034184;28;20025;-83
2021/08/06 10:24:37;;;;;;;8.32;3.63;;;30.00;51.10;;;;;;5035339;28;20033;-84
2021/08/06 10:27:04;;;;;;;10.88;3.13;;;30.30;51.80;;;;;;5034069;28;20040;-83
2021/08/06 10:29:33;;;;;;;7.35;2.50;;;30.80;53.10;;;;;;5035190;28;20021;-84
2021/08/06 10:32:11;;;;;;;5.67;2.70;;;31.50;53.00;;;;;;5033826;28;20052;-83
2021/08/06 10:35:01;;;;;;;7.82;3.05;;;32.20;50.10;;;;;;5033831;28;20103;-83
2021/08/06 10:37:48;;;;;;;12.52;4.60;;;32.90;51.10;;;;;;5035038;28;20056;-83
2021/08/06 10:40:37;;;;;;;9.68;3.67;;;33.40;45.70;;;;;;5033727;28;20460;-82
2021/08/06 10:43:09;;;;;;;7.38;3.65;;;33.80;49.60;;;;;;5034270;28;20022;-83
2021/08/06 10:45:47;;;;;;;7.10;3.38;;;34.20;47.50;;;;;;5035133;28;20029;-83
2021/08/06 10:48:31;;;;;;;9.90;3.97;;;34.60;44.40;;;;;;5034843;28;20026;-83
2021/08/06 10:51:15;;;;;;;17.63;6.55;;;35.00;46.50;;;;;;5033242;28;20022;-83
2021/08/06 10:53:42;;;;;;;10.30;4.75;;;35.50;45.90;;;;;;5033395;28;20042;-84
2021/08/06 10:56:16;;;;;;;5.10;3.25;;;35.80;46.40;;;;;;5034919;28;20030;-83
2021/08/06 10:59:13;;;;;;;5.68;3.50;;;36.20;46.10;;;;;;5033350;28;20082;-83
2021/08/06 11:01:45;;;;;;;6.35;2.90;;;36.70;41.80;;;;;;5033507;28;20032;-82
2021/08/06 11:04:13;;;;;;;3.20;2.40;;;37.20;46.00;;;;;;5035360;28;20030;-82
2021/08/06 11:06:46;;;;;;;3.15;2.50;;;37.70;45.90;;;;;;5034903;28;20030;-82
2021/08/06 11:12:02;;;;;;;3.45;2.20;;;38.50;40.80;;;;;;5035349;28;20040;-84
2021/08/06 11:14:39;;;;;;;3.90;2.60;;;38.80;44.70;;;;;;5036732;28;20061;-83
2021/08/06 11:17:22;;;;;;;2.78;2.40;;;39.10;43.20;;;;;;5054132;28;20040;-83
2021/08/06 11:19:54;;;;;;;3.50;2.40;;;38.80;42.40;;;;;;5036495;28;20029;-83
2021/08/06 11:22:27;;;;;;;6.22;2.95;;;38.20;42.80;;;;;;5036624;28;20048;-84
2021/08/06 11:25:07;;;;;;;5.07;3.10;;;37.40;42.40;;;;;;5039597;28;20048;-83
2021/08/06 11:27:37;;;;;;;6.57;3.42;;;36.70;41.60;;;;;;5054503;28;20374;-84
2021/08/06 11:30:08;;;;;;;9.23;4.00;;;36.00;42.60;;;;;;5054072;28;20025;-84
2021/08/06 11:32:53;;;;;;;10.30;4.72;;;35.30;42.60;;;;;;5054013;28;20032;-84
2021/08/06 11:35:22;;;;;;;5.07;3.28;;;34.60;43.00;;;;;;5036544;28;20067;-83
2021/08/06 11:37:53;;;;;;;6.43;3.92;;;33.90;43.80;;;;;;5035962;28;20036;-83
2021/08/06 11:40:24;;;;;;;7.15;4.13;;;33.40;44.30;;;;;;5035734;28;20033;-83
2021/08/06 11:42:51;;;;;;;6.13;3.85;;;32.90;44.60;;;;;;5053745;28;20025;-83
2021/08/06 11:45:25;;;;;;;6.88;3.92;;;32.40;45.10;;;;;;5053886;28;20113;-84
2021/08/06 11:47:52;;;;;;;6.18;3.75;;;31.90;45.60;;;;;;5035882;28;20033;-84
2021/08/06 11:50:44;;;;;;;5.00;3.50;;;31.50;46.10;;;;;;5054064;28;20075;-84
2021/08/06 11:53:23;;;;;;;4.65;3.10;;;31.10;46.80;;;;;;5053974;28;20067;-84
2021/08/06 11:55:51;;;;;;;3.78;3.10;;;30.80;47.60;;;;;;5036029;28;20033;-83
2021/08/06 11:58:35;;;;;;;3.88;2.95;;;30.50;48.10;;;;;;5058609;28;20037;-84
2021/08/06 12:01:21;;;;;;;4.75;2.83;;;30.30;48.80;;;;;;5041308;28;20029;-84
2021/08/06 12:03:56;;;;;;;4.65;3.05;;;30.00;50.90;;;;;;5035764;28;20029;-84
2021/08/06 12:06:25;;;;;;;4.57;3.30;;;29.70;50.70;;;;;;5035770;28;20029;-84
2021/08/06 12:08:55;;;;;;;6.18;3.75;;;29.50;52.10;;;;;;5053432;28;20100;-84
2021/08/06 12:11:22;;;;;;;6.75;4.38;;;29.10;54.10;;;;;;5035701;28;20358;-84
2021/08/06 12:13:57;;;;;;;5.45;3.80;;;28.70;55.50;;;;;;5053313;28;20041;-85
2021/08/06 12:16:40;;;;;;;6.35;4.00;;;28.20;56.90;;;;;;5053590;28;20029;-84
2021/08/06 12:19:07;;;;;;;6.03;4.20;;;27.70;58.40;;;;;;5054056;28;20375;-83
2021/08/06 12:21:35;;;;;;;5.63;3.60;;;27.20;60.00;;;;;;5035856;28;20487;-82
2021/08/06 12:24:13;;;;;;;5.50;3.65;;;26.80;60.90;;;;;;5035648;28;20031;-83
2021/08/06 12:26:40;;;;;;;5.70;3.50;;;26.40;65.20;;;;;;5035644;28;20108;-84
2021/08/06 12:29:11;;;;;;;8.00;4.88;;;26.10;63.80;;;;;;5035579;28;20032;-84
2021/08/06 12:31:56;;;;;;;11.23;6.25;;;25.70;69.00;;;;;;5035303;28;20028;-86
2021/08/06 12:34:26;;;;;;;14.38;6.32;;;25.30;76.00;;;;;;5053473;28;20044;-90
2021/08/06 12:37:01;;;;;;;12.55;6.50;;;24.40;81.20;;;;;;5035627;28;20112;-90
2021/08/06 12:39:29;;;;;;;11.10;6.13;;;23.50;87.50;;;;;;5039263;28;20032;-89
2021/08/06 12:42:07;;;;;;;9.73;5.50;;;22.90;91.90;;;;;;5039927;28;20027;-89
2021/08/06 12:44:33;;;;;;;6.25;4.90;;;22.50;94.40;;;;;;5040023;28;20079;-89
2021/08/06 12:47:14;;;;;;;7.65;4.97;;;22.20;96.60;;;;;;5039542;28;20417;-89
2021/08/06 12:50:05;;;;;;;5.97;4.40;;;22.00;97.70;;;;;;5057241;28;20025;-89
2021/08/06 12:52:36;;;;;;;5.82;3.70;;;21.90;98.40;;;;;;5040172;28;20033;-90